sensor_id;sensor_type;location;lat;lon;timestamp;pressure;altitude;pressure_sealevel;temperature;humidity
33422;BME280;19763;55.798;37.782;2023-02-13T00:02:12;146076.44;;;-5.08;77.17
33422;BME280;19763;55.798;37.782;2023-02-13T00:04:38;146049.84;;;-5.19;78.11
33422;BME280;19763;55.798;37.782;2023-02-13T00:07:04;146047.34;;;-5.20;77.53
33422;BME280;19763;55.798;37.782;2023-02-13T00:09:30;146052.38;;;-5.18;79.44
33422;BME280;19763;55.798;37.782;2023-02-13T00:11:55;146058.72;;;-5.15;78.69
33422;BME280;19763;55.798;37.782;2023-02-13T00:14:21;146056.19;;;-5.16;79.22
33422;BME280;19763;55.798;37.782;2023-02-13T00:16:46;146052.38;;;-5.18;78.42
33422;BME280;19763;55.798;37.782;2023-02-13T00:19:12;146075.19;;;-5.09;78.47
33422;BME280;19763;55.798;37.782;2023-02-13T00:21:37;146077.69;;;-5.08;79.19
33422;BME280;19763;55.798;37.782;2023-02-13T00:24:03;146086.56;;;-5.04;78.60
33422;BME280;19763;55.798;37.782;2023-02-13T00:26:29;146097.94;;;-4.99;78.82
33422;BME280;19763;55.798;37.782;2023-02-13T00:28:55;146087.81;;;-5.04;78.60
33422;BME280;19763;55.798;37.782;2023-02-13T00:31:21;146075.19;;;-5.09;78.34
33422;BME280;19763;55.798;37.782;2023-02-13T00:33:47;146119.47;;;-4.91;78.13
33422;BME280;19763;55.798;37.782;2023-02-13T00:36:15;146125.81;;;-4.88;79.62
33422;BME280;19763;55.798;37.782;2023-02-13T00:38:42;146132.13;;;-4.86;77.46
33422;BME280;19763;55.798;37.782;2023-02-13T00:41:08;146120.75;;;-4.90;79.14
33422;BME280;19763;55.798;37.782;2023-02-13T00:43:34;146160.00;;;-4.74;78.36
33422;BME280;19763;55.798;37.782;2023-02-13T00:46:00;146189.09;;;-4.62;78.35
33422;BME280;19763;55.798;37.782;2023-02-13T00:48:27;146194.13;;;-4.60;77.82
33422;BME280;19763;55.798;37.782;2023-02-13T00:50:53;146189.09;;;-4.62;77.39
33422;BME280;19763;55.798;37.782;2023-02-13T00:53:20;146199.22;;;-4.58;78.12
33422;BME280;19763;55.798;37.782;2023-02-13T00:55:46;146214.41;;;-4.52;78.93
33422;BME280;19763;55.798;37.782;2023-02-13T00:58:12;146195.44;;;-4.60;77.80
33422;BME280;19763;55.798;37.782;2023-02-13T01:00:38;146166.34;;;-4.72;78.18
33422;BME280;19763;55.798;37.782;2023-02-13T01:03:04;146189.09;;;-4.62;77.78
33422;BME280;19763;55.798;37.782;2023-02-13T01:05:30;146205.56;;;-4.56;77.58
33422;BME280;19763;55.798;37.782;2023-02-13T01:07:56;146194.13;;;-4.60;78.50
33422;BME280;19763;55.798;37.782;2023-02-13T01:10:23;146185.31;;;-4.64;78.31
33422;BME280;19763;55.798;37.782;2023-02-13T01:12:49;146218.19;;;-4.51;78.34
33422;BME280;19763;55.798;37.782;2023-02-13T01:15:16;146208.06;;;-4.55;78.01
33422;BME280;19763;55.798;37.782;2023-02-13T01:17:42;146218.19;;;-4.51;77.88
33422;BME280;19763;55.798;37.782;2023-02-13T01:20:09;146210.63;;;-4.54;77.78
33422;BME280;19763;55.798;37.782;2023-02-13T01:22:36;146238.47;;;-4.42;77.44
33422;BME280;19763;55.798;37.782;2023-02-13T01:25:02;146223.28;;;-4.48;78.46
33422;BME280;19763;55.798;37.782;2023-02-13T01:27:28;146253.66;;;-4.36;78.79
33422;BME280;19763;55.798;37.782;2023-02-13T01:29:54;146227.09;;;-4.47;78.44
33422;BME280;19763;55.798;37.782;2023-02-13T01:32:20;146237.22;;;-4.43;77.58
33422;BME280;19763;55.798;37.782;2023-02-13T01:34:46;146258.75;;;-4.34;77.38
33422;BME280;19763;55.798;37.782;2023-02-13T01:37:12;146257.50;;;-4.35;77.18
33422;BME280;19763;55.798;37.782;2023-02-13T01:39:38;146252.41;;;-4.37;77.58
33422;BME280;19763;55.798;37.782;2023-02-13T01:42:04;146219.50;;;-4.50;77.63
33422;BME280;19763;55.798;37.782;2023-02-13T01:44:54;146216.94;;;-4.51;77.79
33422;BME280;19763;55.798;37.782;2023-02-13T01:47:32;146237.22;;;-4.43;77.48
33422;BME280;19763;55.798;37.782;2023-02-13T01:52:39;146257.50;;;-4.35;78.03
33422;BME280;19763;55.798;37.782;2023-02-13T01:55:06;146289.16;;;-4.22;77.73
33422;BME280;19763;55.798;37.782;2023-02-13T01:57:33;146301.78;;;-4.17;78.07
33422;BME280;19763;55.798;37.782;2023-02-13T02:00:10;146276.47;;;-4.27;76.76
33422;BME280;19763;55.798;37.782;2023-02-13T02:02:41;146315.72;;;-4.11;77.39
33422;BME280;19763;55.798;37.782;2023-02-13T02:05:08;146324.63;;;-4.07;76.27
33422;BME280;19763;55.798;37.782;2023-02-13T02:07:37;146328.41;;;-4.06;76.78
33422;BME280;19763;55.798;37.782;2023-02-13T02:10:14;146280.28;;;-4.25;77.08
33422;BME280;19763;55.798;37.782;2023-02-13T02:12:57;146276.47;;;-4.27;77.71
33422;BME280;19763;55.798;37.782;2023-02-13T02:15:23;146270.13;;;-4.29;77.81
33422;BME280;19763;55.798;37.782;2023-02-13T02:17:49;146310.69;;;-4.13;78.29
33422;BME280;19763;55.798;37.782;2023-02-13T02:32:07;146323.31;;;-4.08;77.89
33422;BME280;19763;55.798;37.782;2023-02-13T02:40:00;146339.81;;;-4.01;77.49
33422;BME280;19763;55.798;37.782;2023-02-13T02:47:47;146325.88;;;-4.07;77.41
33422;BME280;19763;55.798;37.782;2023-02-13T02:50:40;146360.09;;;-3.93;78.48
33422;BME280;19763;55.798;37.782;2023-02-13T02:56:22;146356.28;;;-3.94;76.52
33422;BME280;19763;55.798;37.782;2023-02-13T02:58:56;146361.34;;;-3.92;76.65
33422;BME280;19763;55.798;37.782;2023-02-13T03:01:44;146349.94;;;-3.97;77.56
33422;BME280;19763;55.798;37.782;2023-02-13T03:04:39;146366.44;;;-3.90;77.92
33422;BME280;19763;55.798;37.782;2023-02-13T03:07:24;146386.66;;;-3.82;76.96
33422;BME280;19763;55.798;37.782;2023-02-13T03:09:55;146355.00;;;-3.95;76.95
33422;BME280;19763;55.798;37.782;2023-02-13T03:15:36;146379.06;;;-3.85;77.48
33422;BME280;19763;55.798;37.782;2023-02-13T03:18:23;146404.41;;;-3.75;77.85
33422;BME280;19763;55.798;37.782;2023-02-13T03:21:16;146376.56;;;-3.86;77.54
33422;BME280;19763;55.798;37.782;2023-02-13T03:24:10;146401.91;;;-3.76;77.01
33422;BME280;19763;55.798;37.782;2023-02-13T03:29:52;146376.56;;;-3.86;77.10
33422;BME280;19763;55.798;37.782;2023-02-13T03:35:18;146375.28;;;-3.87;80.08
33422;BME280;19763;55.798;37.782;2023-02-13T03:38:12;146362.63;;;-3.92;80.67
33422;BME280;19763;55.798;37.782;2023-02-13T03:40:50;146315.72;;;-4.11;80.22
33422;BME280;19763;55.798;37.782;2023-02-13T03:43:54;146342.34;;;-4.00;80.93
33422;BME280;19763;55.798;37.782;2023-02-13T03:46:22;146365.13;;;-3.91;81.06
33422;BME280;19763;55.798;37.782;2023-02-13T03:48:49;146375.28;;;-3.87;80.56
33422;BME280;19763;55.798;37.782;2023-02-13T03:51:38;146398.09;;;-3.77;81.09
33422;BME280;19763;55.798;37.782;2023-02-13T03:54:13;146417.09;;;-3.70;80.51
33422;BME280;19763;55.798;37.782;2023-02-13T03:56:41;146441.19;;;-3.60;80.51
33422;BME280;19763;55.798;37.782;2023-02-13T03:59:29;146396.81;;;-3.78;80.85
33422;BME280;19763;55.798;37.782;2023-02-13T04:04:45;146427.22;;;-3.66;81.35
33422;BME280;19763;55.798;37.782;2023-02-13T04:07:16;146465.25;;;-3.50;81.26
33422;BME280;19763;55.798;37.782;2023-02-13T04:09:56;146438.63;;;-3.61;81.07
33422;BME280;19763;55.798;37.782;2023-02-13T04:15:27;146452.56;;;-3.55;81.39
33422;BME280;19763;55.798;37.782;2023-02-13T04:18:16;146475.41;;;-3.46;82.22
33422;BME280;19763;55.798;37.782;2023-02-13T04:20:43;146488.06;;;-3.41;80.80
33422;BME280;19763;55.798;37.782;2023-02-13T04:23:10;146469.06;;;-3.49;81.14
33422;BME280;19763;55.798;37.782;2023-02-13T04:25:38;146443.72;;;-3.59;80.78
33422;BME280;19763;55.798;37.782;2023-02-13T04:28:04;146446.22;;;-3.58;81.84
33422;BME280;19763;55.798;37.782;2023-02-13T04:30:30;146479.19;;;-3.44;81.69
33422;BME280;19763;55.798;37.782;2023-02-13T04:32:56;146475.41;;;-3.46;81.99
33422;BME280;19763;55.798;37.782;2023-02-13T04:35:21;146475.41;;;-3.46;82.04
33422;BME280;19763;55.798;37.782;2023-02-13T04:37:47;146485.56;;;-3.42;82.04
33422;BME280;19763;55.798;37.782;2023-02-13T04:40:13;146491.84;;;-3.39;82.27
33422;BME280;19763;55.798;37.782;2023-02-13T04:42:38;146484.25;;;-3.42;81.94
33422;BME280;19763;55.798;37.782;2023-02-13T04:45:04;146475.41;;;-3.46;82.82
33422;BME280;19763;55.798;37.782;2023-02-13T04:47:30;146488.06;;;-3.41;82.55
33422;BME280;19763;55.798;37.782;2023-02-13T04:49:55;146485.56;;;-3.42;82.88
33422;BME280;19763;55.798;37.782;2023-02-13T04:52:21;146483.00;;;-3.43;82.60
33422;BME280;19763;55.798;37.782;2023-02-13T04:54:47;146515.94;;;-3.30;82.94
33422;BME280;19763;55.798;37.782;2023-02-13T04:57:12;146526.09;;;-3.25;82.39
33422;BME280;19763;55.798;37.782;2023-02-13T04:59:38;146512.13;;;-3.31;82.17
33422;BME280;19763;55.798;37.782;2023-02-13T05:02:03;146534.97;;;-3.22;82.64
33422;BME280;19763;55.798;37.782;2023-02-13T05:04:29;146547.63;;;-3.17;82.95
33422;BME280;19763;55.798;37.782;2023-02-13T05:06:55;146522.28;;;-3.27;83.24
33422;BME280;19763;55.798;37.782;2023-02-13T05:09:20;146518.50;;;-3.28;83.17
33422;BME280;19763;55.798;37.782;2023-02-13T05:11:46;146532.44;;;-3.23;83.48
33422;BME280;19763;55.798;37.782;2023-02-13T05:14:12;146545.13;;;-3.18;82.64
33422;BME280;19763;55.798;37.782;2023-02-13T05:16:37;146537.47;;;-3.21;82.99
33422;BME280;19763;55.798;37.782;2023-02-13T05:19:03;146552.72;;;-3.15;82.16
33422;BME280;19763;55.798;37.782;2023-02-13T05:21:28;146543.84;;;-3.18;82.21
33422;BME280;19763;55.798;37.782;2023-02-13T05:24:13;146585.69;;;-3.01;82.96
33422;BME280;19763;55.798;37.782;2023-02-13T05:26:38;146581.88;;;-3.03;82.36
33422;BME280;19763;55.798;37.782;2023-02-13T05:29:04;146553.97;;;-3.14;82.65
33422;BME280;19763;55.798;37.782;2023-02-13T05:31:46;146546.38;;;-3.17;82.91
33422;BME280;19763;55.798;37.782;2023-02-13T05:34:12;146584.44;;;-3.02;82.93
33422;BME280;19763;55.798;37.782;2023-02-13T05:36:37;146592.03;;;-2.99;82.77
33422;BME280;19763;55.798;37.782;2023-02-13T05:39:04;146627.53;;;-2.84;82.38
33422;BME280;19763;55.798;37.782;2023-02-13T05:41:30;146570.47;;;-3.07;82.59
33422;BME280;19763;55.798;37.782;2023-02-13T05:43:56;146583.13;;;-3.02;82.54
33422;BME280;19763;55.798;37.782;2023-02-13T05:46:21;146598.38;;;-2.96;82.48
33422;BME280;19763;55.798;37.782;2023-02-13T05:48:47;146607.22;;;-2.92;82.23
33422;BME280;19763;55.798;37.782;2023-02-13T05:51:12;146626.28;;;-2.85;81.89
33422;BME280;19763;55.798;37.782;2023-02-13T05:53:38;146614.81;;;-2.89;81.94
33422;BME280;19763;55.798;37.782;2023-02-13T05:56:04;146645.28;;;-2.77;81.76
33422;BME280;19763;55.798;37.782;2023-02-13T05:58:31;146652.88;;;-2.74;80.96
33422;BME280;19763;55.798;37.782;2023-02-13T06:00:58;146655.44;;;-2.73;81.63
33422;BME280;19763;55.798;37.782;2023-02-13T06:03:25;146632.56;;;-2.82;81.31
33422;BME280;19763;55.798;37.782;2023-02-13T06:05:52;146595.81;;;-2.97;80.54
33422;BME280;19763;55.798;37.782;2023-02-13T06:08:18;146602.19;;;-2.95;81.77
33422;BME280;19763;55.798;37.782;2023-02-13T06:10:45;146598.38;;;-2.96;81.04
33422;BME280;19763;55.798;37.782;2023-02-13T06:13:11;146608.53;;;-2.92;81.17
33422;BME280;19763;55.798;37.782;2023-02-13T06:15:37;146659.22;;;-2.71;81.45
33422;BME280;19763;55.798;37.782;2023-02-13T06:18:02;146640.22;;;-2.79;80.89
33422;BME280;19763;55.798;37.782;2023-02-13T06:20:28;146628.78;;;-2.84;81.32
33422;BME280;19763;55.798;37.782;2023-02-13T06:22:53;146637.69;;;-2.80;81.52
33422;BME280;19763;55.798;37.782;2023-02-13T06:25:20;146659.22;;;-2.71;81.60
33422;BME280;19763;55.798;37.782;2023-02-13T06:27:46;146655.44;;;-2.73;80.72
33422;BME280;19763;55.798;37.782;2023-02-13T06:30:12;146668.13;;;-2.68;80.98
33422;BME280;19763;55.798;37.782;2023-02-13T06:32:37;146678.28;;;-2.64;81.11
33422;BME280;19763;55.798;37.782;2023-02-13T06:35:03;146676.97;;;-2.64;81.36
33422;BME280;19763;55.798;37.782;2023-02-13T06:37:29;146660.47;;;-2.71;81.29
33422;BME280;19763;55.798;37.782;2023-02-13T06:39:55;146704.91;;;-2.53;81.43
33422;BME280;19763;55.798;37.782;2023-02-13T06:42:20;146704.91;;;-2.53;79.86
33422;BME280;19763;55.798;37.782;2023-02-13T06:44:46;146715.03;;;-2.49;80.47
33422;BME280;19763;55.798;37.782;2023-02-13T06:47:12;146730.25;;;-2.43;80.56
33422;BME280;19763;55.798;37.782;2023-02-13T06:49:37;146731.56;;;-2.42;81.11
33422;BME280;19763;55.798;37.782;2023-02-13T06:52:03;146708.69;;;-2.51;79.95
33422;BME280;19763;55.798;37.782;2023-02-13T06:54:29;146727.75;;;-2.44;80.12
33422;BME280;19763;55.798;37.782;2023-02-13T06:56:54;146726.44;;;-2.44;81.07
33422;BME280;19763;55.798;37.782;2023-02-13T06:59:20;146703.63;;;-2.53;80.62
33422;BME280;19763;55.798;37.782;2023-02-13T07:01:45;146729.00;;;-2.43;80.67
33422;BME280;19763;55.798;37.782;2023-02-13T07:04:11;146754.38;;;-2.33;80.88
33422;BME280;19763;55.798;37.782;2023-02-13T07:06:36;146741.72;;;-2.38;79.66
33422;BME280;19763;55.798;37.782;2023-02-13T07:09:02;146698.53;;;-2.55;80.37
33422;BME280;19763;55.798;37.782;2023-02-13T07:11:28;146736.59;;;-2.40;80.50
33422;BME280;19763;55.798;37.782;2023-02-13T07:13:54;146756.91;;;-2.32;80.41
33422;BME280;19763;55.798;37.782;2023-02-13T07:16:20;146725.19;;;-2.45;80.69
33422;BME280;19763;55.798;37.782;2023-02-13T07:18:45;146761.97;;;-2.30;80.96
33422;BME280;19763;55.798;37.782;2023-02-13T07:21:11;146773.44;;;-2.25;81.38
33422;BME280;19763;55.798;37.782;2023-02-13T07:23:36;146748.00;;;-2.35;81.41
33422;BME280;19763;55.798;37.782;2023-02-13T07:26:02;146779.72;;;-2.22;82.36
33422;BME280;19763;55.798;37.782;2023-02-13T07:28:28;146795.00;;;-2.16;81.33
33422;BME280;19763;55.798;37.782;2023-02-13T07:30:54;146730.25;;;-2.43;81.91
33422;BME280;19763;55.798;37.782;2023-02-13T07:33:20;146812.75;;;-2.09;81.65
33422;BME280;19763;55.798;37.782;2023-02-13T07:35:47;146858.44;;;-1.91;81.21
33422;BME280;19763;55.798;37.782;2023-02-13T07:38:13;146841.94;;;-1.97;80.03
33422;BME280;19763;55.798;37.782;2023-02-13T07:40:38;146881.25;;;-1.81;81.31
33422;BME280;19763;55.798;37.782;2023-02-13T07:43:04;146885.06;;;-1.80;80.70
33422;BME280;19763;55.798;37.782;2023-02-13T07:45:30;146871.09;;;-1.85;79.54
33422;BME280;19763;55.798;37.782;2023-02-13T07:47:56;146836.88;;;-1.99;80.85
33422;BME280;19763;55.798;37.782;2023-02-13T07:50:21;146858.44;;;-1.91;80.90
33422;BME280;19763;55.798;37.782;2023-02-13T07:52:58;146854.63;;;-1.92;80.85
33422;BME280;19763;55.798;37.782;2023-02-13T07:55:24;146868.59;;;-1.86;81.14
33422;BME280;19763;55.798;37.782;2023-02-13T07:57:50;146891.41;;;-1.77;80.59
33422;BME280;19763;55.798;37.782;2023-02-13T08:00:16;146893.97;;;-1.76;81.38
33422;BME280;19763;55.798;37.782;2023-02-13T08:02:42;146893.97;;;-1.76;80.38
33422;BME280;19763;55.798;37.782;2023-02-13T08:05:08;146944.72;;;-1.56;81.16
33422;BME280;19763;55.798;37.782;2023-02-13T08:07:34;146949.84;;;-1.53;81.82
33422;BME280;19763;55.798;37.782;2023-02-13T08:10:00;146972.66;;;-1.44;80.68
33422;BME280;19763;55.798;37.782;2023-02-13T08:12:44;146937.13;;;-1.59;80.78
33422;BME280;19763;55.798;37.782;2023-02-13T08:15:11;146940.94;;;-1.57;80.28
33422;BME280;19763;55.798;37.782;2023-02-13T08:17:37;146925.72;;;-1.63;80.80
33422;BME280;19763;55.798;37.782;2023-02-13T08:20:04;146962.50;;;-1.48;80.79
33422;BME280;19763;55.798;37.782;2023-02-13T08:22:32;146960.00;;;-1.49;79.68
33422;BME280;19763;55.798;37.782;2023-02-13T08:24:57;146987.94;;;-1.38;80.71
33422;BME280;19763;55.798;37.782;2023-02-13T08:27:23;146987.94;;;-1.38;80.03
33422;BME280;19763;55.798;37.782;2023-02-13T08:29:49;146977.78;;;-1.42;80.42
33422;BME280;19763;55.798;37.782;2023-02-13T08:32:15;146962.50;;;-1.48;81.31
33422;BME280;19763;55.798;37.782;2023-02-13T08:34:41;146977.78;;;-1.42;81.09
33422;BME280;19763;55.798;37.782;2023-02-13T08:37:06;146990.44;;;-1.37;81.18
33422;BME280;19763;55.798;37.782;2023-02-13T08:39:32;146987.94;;;-1.38;81.63
33422;BME280;19763;55.798;37.782;2023-02-13T08:41:58;146942.22;;;-1.57;81.08
33422;BME280;19763;55.798;37.782;2023-02-13T08:44:23;146963.81;;;-1.48;82.14
33422;BME280;19763;55.798;37.782;2023-02-13T08:46:49;146962.50;;;-1.48;82.30
33422;BME280;19763;55.798;37.782;2023-02-13T08:49:14;146986.63;;;-1.39;82.44
33422;BME280;19763;55.798;37.782;2023-02-13T08:51:40;147020.94;;;-1.25;82.83
33422;BME280;19763;55.798;37.782;2023-02-13T08:54:06;147036.16;;;-1.18;81.16
33422;BME280;19763;55.798;37.782;2023-02-13T08:56:31;147031.09;;;-1.20;82.46
33422;BME280;19763;55.798;37.782;2023-02-13T08:58:57;147066.66;;;-1.06;81.87
33422;BME280;19763;55.798;37.782;2023-02-13T09:01:22;147092.06;;;-0.96;82.48
33422;BME280;19763;55.798;37.782;2023-02-13T09:03:48;147051.44;;;-1.12;81.48
33422;BME280;19763;55.798;37.782;2023-02-13T09:06:14;147066.66;;;-1.06;81.89
33422;BME280;19763;55.798;37.782;2023-02-13T09:08:39;147045.06;;;-1.15;83.01
33422;BME280;19763;55.798;37.782;2023-02-13T09:11:05;147064.09;;;-1.07;82.64
33422;BME280;19763;55.798;37.782;2023-02-13T09:13:32;147056.50;;;-1.10;83.34
33422;BME280;19763;55.798;37.782;2023-02-13T09:16:05;147057.78;;;-1.10;83.00
33422;BME280;19763;55.798;37.782;2023-02-13T09:18:32;147081.88;;;-1.00;84.18
33422;BME280;19763;55.798;37.782;2023-02-13T09:21:06;147103.53;;;-0.91;83.56
33422;BME280;19763;55.798;37.782;2023-02-13T09:23:35;147122.56;;;-0.83;83.71
33422;BME280;19763;55.798;37.782;2023-02-13T09:26:02;147087.00;;;-0.98;83.30
33422;BME280;19763;55.798;37.782;2023-02-13T09:28:29;147084.44;;;-0.99;84.62
33422;BME280;19763;55.798;37.782;2023-02-13T09:30:56;147102.22;;;-0.92;84.14
33422;BME280;19763;55.798;37.782;2023-02-13T09:33:22;147139.09;;;-0.77;84.19
33422;BME280;19763;55.798;37.782;2023-02-13T09:35:47;147150.50;;;-0.72;83.47
33422;BME280;19763;55.798;37.782;2023-02-13T09:38:13;147097.16;;;-0.94;84.56
33422;BME280;19763;55.798;37.782;2023-02-13T09:40:53;147120.00;;;-0.84;85.34
33422;BME280;19763;55.798;37.782;2023-02-13T09:43:32;147128.91;;;-0.81;84.14
33422;BME280;19763;55.798;37.782;2023-02-13T09:46:08;147128.91;;;-0.81;84.80
33422;BME280;19763;55.798;37.782;2023-02-13T09:48:38;147191.13;;;-0.56;84.50
33422;BME280;19763;55.798;37.782;2023-02-13T09:51:05;147226.78;;;-0.41;84.59
33422;BME280;19763;55.798;37.782;2023-02-13T09:53:30;147219.09;;;-0.44;84.28
33422;BME280;19763;55.798;37.782;2023-02-13T09:56:14;147139.09;;;-0.77;85.03
33422;BME280;19763;55.798;37.782;2023-02-13T09:58:48;147191.13;;;-0.56;84.15
33422;BME280;19763;55.798;37.782;2023-02-13T10:01:38;147211.47;;;-0.47;83.97
33422;BME280;19763;55.798;37.782;2023-02-13T10:09:38;147264.84;;;-0.26;84.83
33422;BME280;19763;55.798;37.782;2023-02-13T10:12:21;147236.88;;;-0.37;84.18
33422;BME280;19763;55.798;37.782;2023-02-13T10:17:41;147305.56;;;-0.09;84.62
33422;BME280;19763;55.798;37.782;2023-02-13T10:20:36;147283.94;;;-0.18;84.59
33422;BME280;19763;55.798;37.782;2023-02-13T10:26:03;147318.28;;;-0.04;83.82
33422;BME280;19763;55.798;37.782;2023-02-13T10:28:41;147281.41;;;-0.19;84.73
33422;BME280;19763;55.798;37.782;2023-02-13T10:31:12;147264.84;;;-0.26;84.38
33422;BME280;19763;55.798;37.782;2023-02-13T10:33:46;147292.81;;;-0.14;84.06
33422;BME280;19763;55.798;37.782;2023-02-13T10:36:36;147337.34;;;0.04;83.68
33422;BME280;19763;55.798;37.782;2023-02-13T10:41:49;147346.25;;;0.07;83.69
33422;BME280;19763;55.798;37.782;2023-02-13T10:52:32;147352.56;;;0.10;84.22
33422;BME280;19763;55.798;37.782;2023-02-13T11:00:47;147427.63;;;0.40;84.25
33422;BME280;19763;55.798;37.782;2023-02-13T11:03:19;147423.81;;;0.39;83.85
33422;BME280;19763;55.798;37.782;2023-02-13T11:05:47;147386.91;;;0.24;84.15
33422;BME280;19763;55.798;37.782;2023-02-13T11:08:27;147453.06;;;0.50;83.82
33422;BME280;19763;55.798;37.782;2023-02-13T11:10:54;147427.63;;;0.40;83.35
33422;BME280;19763;55.798;37.782;2023-02-13T11:13:23;147445.44;;;0.47;83.84
33422;BME280;19763;55.798;37.782;2023-02-13T11:18:27;147493.75;;;0.67;83.57
33422;BME280;19763;55.798;37.782;2023-02-13T11:21:02;147488.69;;;0.65;83.20
33422;BME280;19763;55.798;37.782;2023-02-13T11:26:07;147449.25;;;0.49;83.05
33422;BME280;19763;55.798;37.782;2023-02-13T11:28:50;147455.63;;;0.51;84.17
33422;BME280;19763;55.798;37.782;2023-02-13T11:31:28;147455.63;;;0.51;83.84
33422;BME280;19763;55.798;37.782;2023-02-13T11:33:54;147478.50;;;0.61;84.20
33422;BME280;19763;55.798;37.782;2023-02-13T11:36:28;147440.31;;;0.45;84.34
33422;BME280;19763;55.798;37.782;2023-02-13T11:39:06;147430.16;;;0.41;85.90
33422;BME280;19763;55.798;37.782;2023-02-13T11:41:43;147478.50;;;0.61;86.17
33422;BME280;19763;55.798;37.782;2023-02-13T11:44:30;147477.25;;;0.60;87.38
33422;BME280;19763;55.798;37.782;2023-02-13T11:46:58;147479.75;;;0.61;87.34
33422;BME280;19763;55.798;37.782;2023-02-13T11:49:29;147505.22;;;0.72;86.23
33422;BME280;19763;55.798;37.782;2023-02-13T11:52:01;147450.50;;;0.49;86.77
33422;BME280;19763;55.798;37.782;2023-02-13T11:59:26;147445.44;;;0.47;86.56
33422;BME280;19763;55.798;37.782;2023-02-13T12:02:14;147506.47;;;0.72;86.00
33422;BME280;19763;55.798;37.782;2023-02-13T12:04:40;147529.41;;;0.81;85.66
33422;BME280;19763;55.798;37.782;2023-02-13T12:09:39;147559.91;;;0.94;86.35
33422;BME280;19763;55.798;37.782;2023-02-13T12:12:05;147524.28;;;0.79;85.91
33422;BME280;19763;55.798;37.782;2023-02-13T12:14:42;147535.72;;;0.84;85.78
33422;BME280;19763;55.798;37.782;2023-02-13T12:17:34;147544.66;;;0.88;86.53
33422;BME280;19763;55.798;37.782;2023-02-13T12:20:00;147561.22;;;0.94;86.27
33422;BME280;19763;55.798;37.782;2023-02-13T12:34:24;147519.22;;;0.77;86.16
33422;BME280;19763;55.798;37.782;2023-02-13T12:39:17;147549.72;;;0.90;85.75
33422;BME280;19763;55.798;37.782;2023-02-13T12:42:30;147601.91;;;1.11;85.63
33422;BME280;19763;55.798;37.782;2023-02-13T12:47:33;147604.47;;;1.12;85.82
33422;BME280;19763;55.798;37.782;2023-02-13T12:55:13;147590.47;;;1.06;85.77
33422;BME280;19763;55.798;37.782;2023-02-13T12:58:14;147580.28;;;1.02;85.84
33422;BME280;19763;55.798;37.782;2023-02-13T13:15:04;147627.34;;;1.21;85.72
33422;BME280;19763;55.798;37.782;2023-02-13T13:20:58;147617.22;;;1.17;85.03
33422;BME280;19763;55.798;37.782;2023-02-13T13:28:53;147638.84;;;1.26;85.25
33422;BME280;19763;55.798;37.782;2023-02-13T13:31:21;147649.03;;;1.30;84.39
33422;BME280;19763;55.798;37.782;2023-02-13T13:33:50;147656.66;;;1.33;84.38
33422;BME280;19763;55.798;37.782;2023-02-13T13:42:04;147651.53;;;1.31;84.22
33422;BME280;19763;55.798;37.782;2023-02-13T13:45:02;147664.28;;;1.36;84.30
33422;BME280;19763;55.798;37.782;2023-02-13T13:50:34;147642.66;;;1.27;84.65
33422;BME280;19763;55.798;37.782;2023-02-13T13:58:23;147659.16;;;1.34;85.33
33422;BME280;19763;55.798;37.782;2023-02-13T14:03:42;147642.66;;;1.27;85.04
33422;BME280;19763;55.798;37.782;2023-02-13T14:06:16;147605.72;;;1.12;85.04
33422;BME280;19763;55.798;37.782;2023-02-13T14:13:54;147636.28;;;1.25;85.88
33422;BME280;19763;55.798;37.782;2023-02-13T14:19:03;147618.47;;;1.17;85.96
33422;BME280;19763;55.798;37.782;2023-02-13T14:21:29;147607.00;;;1.13;86.46
33422;BME280;19763;55.798;37.782;2023-02-13T14:23:56;147617.22;;;1.17;86.96
33422;BME280;19763;55.798;37.782;2023-02-13T14:26:35;147650.28;;;1.30;86.62
33422;BME280;19763;55.798;37.782;2023-02-13T14:29:25;147645.16;;;1.28;86.80
33422;BME280;19763;55.798;37.782;2023-02-13T14:32:24;147654.09;;;1.32;86.91
33422;BME280;19763;55.798;37.782;2023-02-13T14:34:58;147608.28;;;1.13;87.04
33422;BME280;19763;55.798;37.782;2023-02-13T14:37:35;147608.28;;;1.13;87.61
33422;BME280;19763;55.798;37.782;2023-02-13T14:45:32;147628.66;;;1.22;87.67
33422;BME280;19763;55.798;37.782;2023-02-13T14:48:06;147623.53;;;1.19;87.73
33422;BME280;19763;55.798;37.782;2023-02-13T14:50:43;147623.53;;;1.19;88.14
33422;BME280;19763;55.798;37.782;2023-02-13T14:53:27;147617.22;;;1.17;88.24
33422;BME280;19763;55.798;37.782;2023-02-13T14:56:04;147637.53;;;1.25;88.56
33422;BME280;19763;55.798;37.782;2023-02-13T14:58:34;147608.28;;;1.13;88.67
33422;BME280;19763;55.798;37.782;2023-02-13T15:01:20;147666.84;;;1.37;88.31
33422;BME280;19763;55.798;37.782;2023-02-13T15:03:51;147654.09;;;1.32;88.61
33422;BME280;19763;55.798;37.782;2023-02-13T15:06:34;147641.34;;;1.27;88.63
33422;BME280;19763;55.798;37.782;2023-02-13T15:09:14;147621.03;;;1.18;88.38
33422;BME280;19763;55.798;37.782;2023-02-13T15:11:42;147684.66;;;1.44;88.32
33422;BME280;19763;55.798;37.782;2023-02-13T15:14:23;147678.28;;;1.42;88.68
33422;BME280;19763;55.798;37.782;2023-02-13T15:17:17;147636.28;;;1.25;88.83
33422;BME280;19763;55.798;37.782;2023-02-13T15:19:46;147609.53;;;1.14;89.02
33422;BME280;19763;55.798;37.782;2023-02-13T15:22:19;147654.09;;;1.32;89.13
33422;BME280;19763;55.798;37.782;2023-02-13T15:24:47;147638.84;;;1.26;89.65
33422;BME280;19763;55.798;37.782;2023-02-13T15:27:20;147638.84;;;1.26;89.22
33422;BME280;19763;55.798;37.782;2023-02-13T15:30:01;147675.72;;;1.41;89.03
33422;BME280;19763;55.798;37.782;2023-02-13T15:32:33;147615.91;;;1.16;88.62
33422;BME280;19763;55.798;37.782;2023-02-13T15:34:59;147659.16;;;1.34;88.73
33422;BME280;19763;55.798;37.782;2023-02-13T15:37:29;147619.72;;;1.18;88.84
33422;BME280;19763;55.798;37.782;2023-02-13T15:39:54;147635.03;;;1.24;89.37